KADW/ADW METAR and TAF weather

Enter ICAO airport designator
Station Type Date Time Source
KADW METAR 2019/06/26 22:56 UTC NOAA

KADW 262256Z AUTO 20008KT 10SM CLR 30/17 A3004 RMK AO2 SLP177 T03030170 $


Station Type Date Time Source
KADW Decoded METAR 2019/06/26 22:56 UTC NOAA

Camp Springs / Andrews Air Force Base, MD, United States (KADW) 38-49N 076-51W 88M
Jun 26, 2019 - 06:56 PM EDT / 2019.06.26 2256 UTC
Wind: from the SSW (200 degrees) at 9 MPH (8 KT):0
Visibility: 10 mile(s):0
Sky conditions: clear
Temperature: 86.5 F (30.3 C)
Dew Point: 62.6 F (17.0 C)
Relative Humidity: 44%
Pressure (altimeter): 30.04 in. Hg (1017 hPa)
ob: KADW 262256Z AUTO 20008KT 10SM CLR 30/17 A3004 RMK AO2 SLP177 T03030170
cycle: 23

Station Type Date Time Source
KADW TAF 2019/06/26 17:06 UTC NOAA

TAF KADW 261700Z 2617/2723 30009KT 9999 FEW150 SCT250 QNH3003INS
BECMG 2620/2621 VRB06KT 9999 SKC QNH3008INS TX32/2717Z TN24/2708Z

Example: see airport list